Time;durP1;ratioP1;P1;durP2;ratioP2;P2;SDS_P1;SDS_P2;PMS_P1;PMS_P2;Temp;Humidity;BMP_temperature;BMP_pressure;BME280_temperature;BME280_humidity;BME280_pressure;Samples;Min_cycle;Max_cycle;Signal;HPM_P1;HPM_P2
2023/03/04 00:01:52;;;;;;;18.80;2.45;;;;;;;;;;5052540;28;20380;-69
2023/03/04 00:04:18;;;;;;;17.80;2.78;;;;;;;;;;5052793;28;20045;-69
2023/03/04 00:06:44;;;;;;;16.85;3.10;;;;;;;;;;5052230;28;20403;-69
2023/03/04 00:09:10;;;;;;;22.98;2.55;;;;;;;;;;5052644;28;20045;-69
2023/03/04 00:11:37;;;;;;;12.75;2.05;;;;;;;;;;5052595;28;20559;-69
2023/03/04 00:14:03;;;;;;;14.30;2.53;;;;;;;;;;5051689;28;20045;-69
2023/03/04 00:16:29;;;;;;;14.60;2.20;;;;;;;;;;5052565;28;20056;-69
2023/03/04 00:18:56;;;;;;;18.83;2.78;;;;;;;;;;5052228;28;20052;-69
2023/03/04 00:21:22;;;;;;;11.05;2.13;;;;;;;;;;5051392;28;20049;-69
2023/03/04 00:23:48;;;;;;;14.00;2.42;;;;;;;;;;5059837;28;20133;-69
2023/03/04 00:26:14;;;;;;;18.08;1.88;;;;;;;;;;5062130;28;20032;-69
2023/03/04 00:28:40;;;;;;;14.00;1.95;;;;;;;;;;5071376;28;20094;-69
2023/03/04 00:31:07;;;;;;;12.40;2.03;;;;;;;;;;5072207;28;20502;-69
2023/03/04 00:33:33;;;;;;;13.73;2.42;;;;;;;;;;5071809;28;20406;-69
2023/03/04 00:35:59;;;;;;;19.10;1.95;;;;;;;;;;5071234;28;20155;-69
2023/03/04 00:38:25;;;;;;;12.48;2.33;;;;;;;;;;5071889;28;20448;-69
2023/03/04 00:40:51;;;;;;;15.95;2.00;;;;;;;;;;5073027;28;20123;-69
2023/03/04 00:43:18;;;;;;;25.58;2.40;;;;;;;;;;5071186;28;20040;-69
2023/03/04 00:45:44;;;;;;;16.10;2.63;;;;;;;;;;5071857;28;20048;-69
2023/03/04 00:48:10;;;;;;;19.15;3.10;;;;;;;;;;5057985;28;20044;-69
2023/03/04 00:50:36;;;;;;;17.15;2.50;;;;;;;;;;5051594;28;20558;-69
2023/03/04 00:53:02;;;;;;;15.55;2.42;;;;;;;;;;5051796;28;20099;-69
2023/03/04 00:55:28;;;;;;;16.15;2.50;;;;;;;;;;5053081;28;20076;-69
2023/03/04 00:57:54;;;;;;;16.65;2.20;;;;;;;;;;5051074;28;20033;-69
2023/03/04 01:00:21;;;;;;;16.48;1.85;;;;;;;;;;5051670;28;20052;-69
2023/03/04 01:02:47;;;;;;;12.52;2.05;;;;;;;;;;5051581;28;20136;-69
2023/03/04 01:05:13;;;;;;;20.80;2.40;;;;;;;;;;5051221;28;20045;-69
2023/03/04 01:07:39;;;;;;;12.27;2.13;;;;;;;;;;5051495;28;20399;-69
2023/03/04 01:10:06;;;;;;;19.17;2.03;;;;;;;;;;5034775;28;20055;-69
2023/03/04 01:12:32;;;;;;;13.23;2.15;;;;;;;;;;5050963;28;20049;-69
2023/03/04 01:14:58;;;;;;;16.48;3.05;;;;;;;;;;5034922;28;20052;-69
2023/03/04 01:17:24;;;;;;;16.00;2.35;;;;;;;;;;5051460;28;20048;-69
2023/03/04 01:19:50;;;;;;;14.43;2.05;;;;;;;;;;5050286;28;20049;-69
2023/03/04 01:22:17;;;;;;;13.02;2.08;;;;;;;;;;5051046;28;20045;-69
2023/03/04 01:24:44;;;;;;;18.48;2.72;;;;;;;;;;5053185;28;20074;-69
2023/03/04 01:27:10;;;;;;;14.35;2.08;;;;;;;;;;5052637;28;20116;-69
2023/03/04 01:29:36;;;;;;;13.57;2.33;;;;;;;;;;5051039;28;20045;-69
2023/03/04 01:32:02;;;;;;;22.73;2.75;;;;;;;;;;5051057;28;20475;-69
2023/03/04 01:34:28;;;;;;;15.57;2.42;;;;;;;;;;5050395;28;20494;-69
2023/03/04 01:36:54;;;;;;;15.73;2.40;;;;;;;;;;5050469;28;20090;-69
2023/03/04 01:39:20;;;;;;;17.88;2.30;;;;;;;;;;5050924;28;20483;-69
2023/03/04 01:41:46;;;;;;;15.32;2.33;;;;;;;;;;5050082;28;20531;-69
2023/03/04 01:44:12;;;;;;;13.27;2.40;;;;;;;;;;5034405;28;20037;-70
2023/03/04 01:46:40;;;;;;;16.27;2.10;;;;;;;;;;5050579;28;20084;-69
2023/03/04 01:49:06;;;;;;;9.32;2.00;;;;;;;;;;5033574;28;20565;-69
2023/03/04 01:51:32;;;;;;;10.60;2.42;;;;;;;;;;5050581;28;20131;-69
2023/03/04 01:53:58;;;;;;;12.95;2.40;;;;;;;;;;5050537;28;20373;-69
2023/03/04 01:56:27;;;;;;;21.52;2.38;;;;;;;;;;5033586;28;20048;-69
2023/03/04 01:59:10;;;;;;;15.65;2.13;;;;;;;;;;5050378;28;20548;-69
2023/03/04 02:01:36;;;;;;;16.98;2.85;;;;;;;;;;5050350;28;20158;-69
2023/03/04 02:04:03;;;;;;;14.23;1.80;;;;;;;;;;5049736;28;20560;-69
2023/03/04 02:06:29;;;;;;;13.93;1.83;;;;;;;;;;5050619;28;20452;-69
2023/03/04 02:08:55;;;;;;;12.25;2.28;;;;;;;;;;5050236;28;20090;-69
2023/03/04 02:11:21;;;;;;;14.52;2.03;;;;;;;;;;5049725;28;20056;-69
2023/03/04 02:13:47;;;;;;;11.85;2.00;;;;;;;;;;5050158;28;20049;-69
2023/03/04 02:16:13;;;;;;;15.60;2.50;;;;;;;;;;5050266;28;20510;-69
2023/03/04 02:18:39;;;;;;;11.15;1.60;;;;;;;;;;5049636;28;20044;-69
2023/03/04 02:21:22;;;;;;;19.77;2.25;;;;;;;;;;5049726;28;20123;-69
2023/03/04 02:23:54;;;;;;;11.52;2.15;;;;;;;;;;5060981;28;20044;-69
2023/03/04 02:26:22;;;;;;;12.85;1.70;;;;;;;;;;5058277;28;20056;-69
2023/03/04 02:28:48;;;;;;;19.20;2.30;;;;;;;;;;5049783;28;20033;-69
2023/03/04 02:31:21;;;;;;;20.42;2.78;;;;;;;;;;5049747;28;20037;-69
2023/03/04 02:33:47;;;;;;;12.90;2.05;;;;;;;;;;5049423;28;20054;-69
2023/03/04 02:36:13;;;;;;;11.27;1.85;;;;;;;;;;5033175;28;20048;-69
2023/03/04 02:38:39;;;;;;;13.50;2.13;;;;;;;;;;5033706;28;20048;-69
2023/03/04 02:41:06;;;;;;;12.45;1.63;;;;;;;;;;5049139;28;20636;-69
2023/03/04 02:43:32;;;;;;;11.15;1.63;;;;;;;;;;5050033;28;20047;-69
2023/03/04 02:45:58;;;;;;;18.75;2.88;;;;;;;;;;5049923;28;20092;-69
2023/03/04 02:48:24;;;;;;;12.52;1.80;;;;;;;;;;5048931;28;20041;-70
2023/03/04 02:50:51;;;;;;;18.50;2.38;;;;;;;;;;5049592;28;20048;-69
2023/03/04 02:53:19;;;;;;;13.32;2.28;;;;;;;;;;5049571;28;20117;-69
2023/03/04 02:55:45;;;;;;;13.52;2.22;;;;;;;;;;5048895;28;20095;-69
2023/03/04 02:58:12;;;;;;;13.25;1.92;;;;;;;;;;5033012;28;20131;-69
2023/03/04 03:00:39;;;;;;;20.42;2.80;;;;;;;;;;5049253;28;20072;-69
2023/03/04 03:03:05;;;;;;;10.93;2.00;;;;;;;;;;5048949;28;20048;-69
2023/03/04 03:05:32;;;;;;;11.93;2.13;;;;;;;;;;5032878;28;20049;-69
2023/03/04 03:07:58;;;;;;;12.38;1.85;;;;;;;;;;5049435;28;20041;-69
2023/03/04 03:10:24;;;;;;;13.63;2.03;;;;;;;;;;5032149;28;20411;-69
2023/03/04 03:12:50;;;;;;;11.73;2.30;;;;;;;;;;5049332;28;20045;-69
2023/03/04 03:15:16;;;;;;;15.70;2.05;;;;;;;;;;5049404;28;20049;-69
2023/03/04 03:17:42;;;;;;;14.52;2.08;;;;;;;;;;5048800;28;20041;-69
2023/03/04 03:20:09;;;;;;;10.15;2.22;;;;;;;;;;5049124;28;20132;-69
2023/03/04 03:22:35;;;;;;;17.83;1.70;;;;;;;;;;5050300;28;20053;-69
2023/03/04 03:25:02;;;;;;;11.88;2.42;;;;;;;;;;5068729;28;20131;-69
2023/03/04 03:27:28;;;;;;;13.73;2.55;;;;;;;;;;5049498;28;20073;-69
2023/03/04 03:29:54;;;;;;;16.90;2.88;;;;;;;;;;5049573;28;20079;-69
2023/03/04 03:32:20;;;;;;;19.85;2.30;;;;;;;;;;5048787;28;20068;-70
2023/03/04 03:34:46;;;;;;;14.77;2.22;;;;;;;;;;5049207;28;20080;-69
2023/03/04 03:37:13;;;;;;;13.82;2.13;;;;;;;;;;5049549;28;20449;-69
2023/03/04 03:39:39;;;;;;;15.45;2.25;;;;;;;;;;5048294;28;20041;-69
2023/03/04 03:42:05;;;;;;;14.77;2.28;;;;;;;;;;5049058;28;20068;-69
2023/03/04 03:44:31;;;;;;;9.20;1.85;;;;;;;;;;5032468;28;20469;-69
2023/03/04 03:46:57;;;;;;;18.25;2.67;;;;;;;;;;5052351;28;20119;-69
2023/03/04 03:49:23;;;;;;;10.77;1.75;;;;;;;;;;5068785;28;20052;-69
2023/03/04 03:51:49;;;;;;;19.42;2.53;;;;;;;;;;5069223;28;20463;-69
2023/03/04 03:54:15;;;;;;;11.52;2.13;;;;;;;;;;5069164;28;20499;-69
2023/03/04 03:56:41;;;;;;;10.95;1.90;;;;;;;;;;5051989;28;20079;-69
2023/03/04 03:59:07;;;;;;;12.85;2.53;;;;;;;;;;5069094;28;20056;-69
2023/03/04 04:01:33;;;;;;;13.60;2.05;;;;;;;;;;5072042;28;20052;-69
2023/03/04 04:04:00;;;;;;;12.18;1.80;;;;;;;;;;5072216;28;20068;-69
2023/03/04 04:06:26;;;;;;;19.20;2.75;;;;;;;;;;5072525;28;20128;-69
2023/03/04 04:08:52;;;;;;;12.38;2.08;;;;;;;;;;5072538;28;20082;-69
2023/03/04 04:11:18;;;;;;;10.30;2.13;;;;;;;;;;5072133;28;20131;-69
2023/03/04 04:13:44;;;;;;;11.25;1.70;;;;;;;;;;5072697;28;20044;-69
2023/03/04 04:16:11;;;;;;;18.42;2.25;;;;;;;;;;5072638;28;20063;-69
2023/03/04 04:18:37;;;;;;;13.48;2.45;;;;;;;;;;5071729;28;20052;-69
2023/03/04 04:21:03;;;;;;;14.80;2.20;;;;;;;;;;5072147;28;20041;-69
2023/03/04 04:23:30;;;;;;;10.40;2.33;;;;;;;;;;5063614;28;20131;-69
2023/03/04 04:25:56;;;;;;;15.40;2.40;;;;;;;;;;5059000;28;20068;-69
2023/03/04 04:28:22;;;;;;;14.25;2.10;;;;;;;;;;5073615;28;20087;-69
2023/03/04 04:30:48;;;;;;;16.88;1.80;;;;;;;;;;5072040;28;20041;-69
2023/03/04 04:33:14;;;;;;;11.73;1.77;;;;;;;;;;5071728;28;20490;-69
2023/03/04 04:35:41;;;;;;;10.00;1.77;;;;;;;;;;5071929;28;20075;-69
2023/03/04 04:38:07;;;;;;;15.70;1.85;;;;;;;;;;5072114;28;20520;-69
2023/03/04 04:40:33;;;;;;;15.18;1.95;;;;;;;;;;5071084;28;20068;-69
2023/03/04 04:42:59;;;;;;;13.38;1.77;;;;;;;;;;5072179;28;20528;-69
2023/03/04 04:45:25;;;;;;;14.05;1.75;;;;;;;;;;5072026;28;20068;-69
2023/03/04 04:47:52;;;;;;;21.90;2.85;;;;;;;;;;5059748;28;20037;-69
2023/03/04 04:50:18;;;;;;;15.10;2.20;;;;;;;;;;5051569;28;20089;-69
2023/03/04 04:52:44;;;;;;;14.25;2.13;;;;;;;;;;5051713;28;20071;-69
2023/03/04 04:55:10;;;;;;;14.48;2.65;;;;;;;;;;5034434;28;20124;-69
2023/03/04 04:57:36;;;;;;;14.98;2.58;;;;;;;;;;5052031;28;20048;-69
2023/03/04 05:00:04;;;;;;;11.90;2.33;;;;;;;;;;5051266;28;20041;-69
2023/03/04 05:02:30;;;;;;;15.10;2.17;;;;;;;;;;5051077;28;20049;-69
2023/03/04 05:04:56;;;;;;;14.40;2.45;;;;;;;;;;5035022;28;20067;-69
2023/03/04 05:07:22;;;;;;;15.05;2.00;;;;;;;;;;5051425;28;20037;-69
2023/03/04 05:09:48;;;;;;;12.65;2.00;;;;;;;;;;5034108;28;20041;-69
2023/03/04 05:12:14;;;;;;;11.98;1.75;;;;;;;;;;5051530;28;20143;-69
2023/03/04 05:14:40;;;;;;;9.77;1.80;;;;;;;;;;5051361;28;20068;-69
2023/03/04 05:17:06;;;;;;;9.85;1.77;;;;;;;;;;5050936;28;20049;-69
2023/03/04 05:19:32;;;;;;;9.73;1.95;;;;;;;;;;5051134;28;20380;-69
2023/03/04 05:21:58;;;;;;;16.30;1.80;;;;;;;;;;5050961;28;20062;-69
2023/03/04 05:24:24;;;;;;;15.73;2.20;;;;;;;;;;5066398;28;20068;-69
2023/03/04 05:26:50;;;;;;;8.20;1.85;;;;;;;;;;5056496;28;20102;-69
2023/03/04 05:29:16;;;;;;;13.80;2.15;;;;;;;;;;5050934;28;20040;-69
2023/03/04 05:31:42;;;;;;;8.25;1.60;;;;;;;;;;5050633;28;20044;-69
2023/03/04 05:34:08;;;;;;;9.52;2.25;;;;;;;;;;5051175;28;20048;-69
2023/03/04 05:36:34;;;;;;;10.13;1.80;;;;;;;;;;5050831;28;20079;-69
2023/03/04 05:39:00;;;;;;;9.93;1.60;;;;;;;;;;5050486;28;20503;-69
2023/03/04 05:41:26;;;;;;;10.98;1.92;;;;;;;;;;5050756;28;20037;-69
2023/03/04 05:43:52;;;;;;;8.32;1.40;;;;;;;;;;5034603;28;20808;-69
2023/03/04 05:46:24;;;;;;;10.90;1.70;;;;;;;;;;5050532;28;20045;-69
2023/03/04 05:48:50;;;;;;;12.10;2.30;;;;;;;;;;5050936;28;20048;-69
2023/03/04 05:51:16;;;;;;;11.88;1.50;;;;;;;;;;5051983;28;20041;-69
2023/03/04 05:53:42;;;;;;;8.70;1.70;;;;;;;;;;5033284;28;20044;-69
2023/03/04 05:56:09;;;;;;;14.43;1.55;;;;;;;;;;5050819;28;20434;-69
2023/03/04 05:58:35;;;;;;;14.73;3.33;;;;;;;;;;5050342;28;20091;-69
2023/03/04 06:01:02;;;;;;;5.90;1.40;;;;;;;;;;5049728;28;20484;-69
2023/03/04 06:03:28;;;;;;;12.68;1.77;;;;;;;;;;5050563;28;20565;-69
2023/03/04 06:05:54;;;;;;;8.05;1.50;;;;;;;;;;5051861;28;20110;-69
2023/03/04 06:08:20;;;;;;;11.70;1.77;;;;;;;;;;5049982;28;20799;-69
2023/03/04 06:10:46;;;;;;;12.45;1.60;;;;;;;;;;5050628;28;20056;-69
2023/03/04 06:13:12;;;;;;;7.20;1.30;;;;;;;;;;5033791;28;20040;-69
2023/03/04 06:15:39;;;;;;;8.05;1.60;;;;;;;;;;5049806;28;20479;-69
2023/03/04 06:18:05;;;;;;;13.75;2.25;;;;;;;;;;5033664;28;20052;-69
2023/03/04 06:20:31;;;;;;;9.35;1.20;;;;;;;;;;5050122;28;20507;-69
2023/03/04 06:22:57;;;;;;;7.80;1.42;;;;;;;;;;5052857;28;20048;-69
2023/03/04 06:25:24;;;;;;;5.95;1.50;;;;;;;;;;5066808;28;20036;-69
2023/03/04 06:27:50;;;;;;;7.40;1.27;;;;;;;;;;5049850;28;20048;-69
2023/03/04 06:30:16;;;;;;;12.18;1.73;;;;;;;;;;5049454;28;20052;-69
2023/03/04 06:32:43;;;;;;;11.50;1.70;;;;;;;;;;5049874;28;20651;-69
2023/03/04 06:35:10;;;;;;;12.10;1.83;;;;;;;;;;5049818;28;20609;-69
2023/03/04 06:37:36;;;;;;;10.65;1.55;;;;;;;;;;5049094;28;20052;-69
2023/03/04 06:40:03;;;;;;;6.70;1.33;;;;;;;;;;5049467;28;20171;-69
2023/03/04 06:42:29;;;;;;;6.78;1.27;;;;;;;;;;5033036;28;20110;-69
2023/03/04 06:44:55;;;;;;;9.70;1.30;;;;;;;;;;5049215;28;20033;-70
2023/03/04 06:47:21;;;;;;;7.80;1.38;;;;;;;;;;5036814;28;20480;-69
2023/03/04 06:49:47;;;;;;;7.28;1.02;;;;;;;;;;5049523;28;20132;-68
2023/03/04 06:52:13;;;;;;;6.30;1.35;;;;;;;;;;5032262;28;20482;-68
2023/03/04 06:54:39;;;;;;;6.03;1.45;;;;;;;;;;5049505;28;20150;-68
2023/03/04 06:57:06;;;;;;;8.15;1.10;;;;;;;;;;5032855;28;20049;-68
2023/03/04 06:59:32;;;;;;;6.63;1.02;;;;;;;;;;5048602;28;20448;-68
2023/03/04 07:01:58;;;;;;;6.65;1.20;;;;;;;;;;5049417;28;20106;-68
2023/03/04 07:04:24;;;;;;;4.68;1.10;;;;;;;;;;5049828;28;20550;-68
2023/03/04 07:06:50;;;;;;;9.02;1.15;;;;;;;;;;5049041;28;20040;-68
2023/03/04 07:09:17;;;;;;;5.65;1.50;;;;;;;;;;5049575;28;20048;-68
2023/03/04 07:11:43;;;;;;;5.90;1.20;;;;;;;;;;5049307;28;20128;-68
2023/03/04 07:14:10;;;;;;;7.65;2.05;;;;;;;;;;5048776;28;20411;-68
2023/03/04 07:16:36;;;;;;;7.20;1.55;;;;;;;;;;5049243;28;20041;-68
2023/03/04 07:19:02;;;;;;;9.40;1.40;;;;;;;;;;5049222;28;20087;-68
2023/03/04 07:21:28;;;;;;;6.03;1.30;;;;;;;;;;5048811;28;20049;-68
2023/03/04 07:23:54;;;;;;;10.27;1.40;;;;;;;;;;5048624;28;20045;-68
2023/03/04 07:26:20;;;;;;;9.27;1.40;;;;;;;;;;5050364;28;20041;-68
2023/03/04 07:28:46;;;;;;;4.63;1.30;;;;;;;;;;5049152;28;20128;-68
2023/03/04 07:31:23;;;;;;;8.38;2.20;;;;;;;;;;5048502;28;20044;-68
2023/03/04 07:33:50;;;;;;;4.72;1.40;;;;;;;;;;5032677;28;20132;-68
2023/03/04 07:36:18;;;;;;;11.65;1.73;;;;;;;;;;5052168;28;20418;-68
2023/03/04 07:38:48;;;;;;;8.27;1.75;;;;;;;;;;5052862;28;20067;-69
2023/03/04 07:41:14;;;;;;;7.57;1.38;;;;;;;;;;5053094;28;20037;-69
2023/03/04 07:43:40;;;;;;;10.43;1.77;;;;;;;;;;5052929;28;20043;-69
2023/03/04 07:46:06;;;;;;;12.73;1.40;;;;;;;;;;5052766;28;20036;-69
2023/03/04 07:48:32;;;;;;;8.07;1.45;;;;;;;;;;5069714;28;20036;-69
2023/03/04 07:51:09;;;;;;;9.02;1.67;;;;;;;;;;5074113;28;20046;-69
2023/03/04 07:53:35;;;;;;;12.18;1.50;;;;;;;;;;5073024;28;20120;-69
2023/03/04 07:56:02;;;;;;;13.73;1.63;;;;;;;;;;5072976;28;20438;-69
2023/03/04 07:58:28;;;;;;;8.82;1.95;;;;;;;;;;5072630;28;20040;-69
2023/03/04 08:00:54;;;;;;;9.88;1.50;;;;;;;;;;5072159;28;20380;-69
2023/03/04 08:03:20;;;;;;;5.53;1.73;;;;;;;;;;5056293;28;20045;-69
2023/03/04 08:05:46;;;;;;;8.23;1.90;;;;;;;;;;5072947;28;20074;-68
2023/03/04 08:08:12;;;;;;;8.52;1.48;;;;;;;;;;5072103;28;20036;-68
2023/03/04 08:10:38;;;;;;;9.85;1.45;;;;;;;;;;5072576;28;20123;-68
2023/03/04 08:13:07;;;;;;;7.72;1.52;;;;;;;;;;5055912;28;20048;-69
2023/03/04 08:15:34;;;;;;;4.82;1.20;;;;;;;;;;5071928;28;20467;-69
2023/03/04 08:18:00;;;;;;;7.65;1.60;;;;;;;;;;5072198;28;20825;-69
2023/03/04 08:20:27;;;;;;;11.32;1.90;;;;;;;;;;5072564;28;20044;-69
2023/03/04 08:22:53;;;;;;;7.90;1.65;;;;;;;;;;5068152;28;20044;-69
2023/03/04 08:25:19;;;;;;;6.95;1.50;;;;;;;;;;5037767;28;20419;-69
2023/03/04 08:27:45;;;;;;;8.38;1.95;;;;;;;;;;5055798;28;20047;-69
2023/03/04 08:30:11;;;;;;;14.23;2.25;;;;;;;;;;5071837;28;20082;-68
2023/03/04 08:32:37;;;;;;;8.15;1.98;;;;;;;;;;5072057;28;20082;-68
2023/03/04 08:35:03;;;;;;;10.32;1.60;;;;;;;;;;5071904;28;20043;-68
2023/03/04 08:37:29;;;;;;;13.05;2.72;;;;;;;;;;5071474;28;20036;-68
2023/03/04 08:39:55;;;;;;;8.75;1.67;;;;;;;;;;5071953;28;20383;-68
2023/03/04 08:42:23;;;;;;;13.90;1.63;;;;;;;;;;5071918;28;20040;-68
2023/03/04 08:44:49;;;;;;;10.73;1.90;;;;;;;;;;5054597;28;20029;-68
2023/03/04 08:47:15;;;;;;;13.07;2.25;;;;;;;;;;5065698;28;20040;-68
2023/03/04 08:49:41;;;;;;;13.15;1.98;;;;;;;;;;5051597;28;20120;-68
2023/03/04 08:52:07;;;;;;;11.70;2.22;;;;;;;;;;5051245;28;20130;-68
2023/03/04 08:54:33;;;;;;;11.07;2.13;;;;;;;;;;5051656;28;20045;-68
2023/03/04 08:57:00;;;;;;;16.55;2.22;;;;;;;;;;5051932;28;20148;-68
2023/03/04 08:59:26;;;;;;;16.27;2.70;;;;;;;;;;5050947;28;20041;-68
2023/03/04 09:01:52;;;;;;;12.52;2.15;;;;;;;;;;5051503;28;20037;-68
2023/03/04 09:04:18;;;;;;;16.35;2.40;;;;;;;;;;5035246;28;20056;-68
2023/03/04 09:06:44;;;;;;;16.95;2.60;;;;;;;;;;5051132;28;20095;-68
2023/03/04 09:09:10;;;;;;;12.73;2.00;;;;;;;;;;5051627;28;20052;-68
2023/03/04 09:11:36;;;;;;;15.65;2.35;;;;;;;;;;5051475;28;20502;-68
2023/03/04 09:14:03;;;;;;;9.82;2.08;;;;;;;;;;5050774;28;20131;-68
2023/03/04 09:16:29;;;;;;;10.48;1.98;;;;;;;;;;5051274;28;20491;-68
2023/03/04 09:18:55;;;;;;;12.25;2.33;;;;;;;;;;5051159;28;20126;-68
2023/03/04 09:21:21;;;;;;;21.52;2.58;;;;;;;;;;5050573;28;20049;-68
2023/03/04 09:23:47;;;;;;;13.02;1.80;;;;;;;;;;5045421;28;20271;-68
2023/03/04 09:26:17;;;;;;;12.77;2.20;;;;;;;;;;5061472;28;20552;-68
2023/03/04 09:28:43;;;;;;;11.48;2.55;;;;;;;;;;5050459;28;20064;-68
2023/03/04 09:31:13;;;;;;;15.68;2.30;;;;;;;;;;5051275;28;20052;-68
2023/03/04 09:33:41;;;;;;;18.95;2.40;;;;;;;;;;5050968;28;20048;-68
2023/03/04 09:36:08;;;;;;;25.70;2.65;;;;;;;;;;5050331;28;20128;-68
2023/03/04 09:38:34;;;;;;;15.13;2.35;;;;;;;;;;5051057;28;20045;-68
2023/03/04 09:41:02;;;;;;;18.55;3.35;;;;;;;;;;5050619;28;20052;-68
2023/03/04 09:43:30;;;;;;;23.58;2.63;;;;;;;;;;5050417;28;20033;-68
2023/03/04 09:45:58;;;;;;;19.45;2.97;;;;;;;;;;5051019;28;20049;-68
2023/03/04 09:48:27;;;;;;;20.13;2.88;;;;;;;;;;5046423;28;20037;-69
2023/03/04 09:50:53;;;;;;;16.50;2.50;;;;;;;;;;5050129;28;20222;-69
2023/03/04 09:53:39;;;;;;;22.90;3.25;;;;;;;;;;5050655;28;20057;-68
2023/03/04 09:56:05;;;;;;;21.13;3.40;;;;;;;;;;5050598;28;20045;-68
2023/03/04 09:58:34;;;;;;;14.13;2.42;;;;;;;;;;5049148;28;20044;-68
2023/03/04 10:01:12;;;;;;;15.98;2.70;;;;;;;;;;5050268;28;20044;-68
2023/03/04 10:03:56;;;;;;;20.98;3.30;;;;;;;;;;5050691;28;20079;-68
2023/03/04 10:06:23;;;;;;;14.20;2.75;;;;;;;;;;5049932;28;20040;-68
2023/03/04 10:08:52;;;;;;;17.40;2.75;;;;;;;;;;5050392;28;20503;-68
2023/03/04 10:11:22;;;;;;;19.08;2.75;;;;;;;;;;5050341;28;20102;-68
2023/03/04 10:13:55;;;;;;;16.35;2.42;;;;;;;;;;5049729;28;20051;-68
2023/03/04 10:16:24;;;;;;;19.35;2.80;;;;;;;;;;5050531;28;20049;-68
2023/03/04 10:18:54;;;;;;;12.27;2.35;;;;;;;;;;5050358;28;20052;-68
2023/03/04 10:21:26;;;;;;;14.15;2.25;;;;;;;;;;5032359;28;20150;-68
2023/03/04 10:23:53;;;;;;;18.75;2.60;;;;;;;;;;5049163;28;20048;-68
2023/03/04 10:26:21;;;;;;;21.90;2.20;;;;;;;;;;5049431;28;20747;-68
2023/03/04 10:28:47;;;;;;;15.23;2.30;;;;;;;;;;5048506;28;20068;-68
2023/03/04 10:31:21;;;;;;;12.68;1.80;;;;;;;;;;5049298;28;20124;-68
2023/03/04 10:33:47;;;;;;;17.27;2.85;;;;;;;;;;5049385;28;20041;-68
2023/03/04 10:36:19;;;;;;;18.80;2.05;;;;;;;;;;5048437;28;20052;-68
2023/03/04 10:38:45;;;;;;;11.18;2.13;;;;;;;;;;5032432;28;20041;-68
2023/03/04 10:41:12;;;;;;;14.77;2.10;;;;;;;;;;5032394;28;20041;-68
2023/03/04 10:43:38;;;;;;;10.80;2.13;;;;;;;;;;5048505;28;20041;-68
2023/03/04 10:46:04;;;;;;;15.20;1.88;;;;;;;;;;5049201;28;20675;-68
2023/03/04 10:48:31;;;;;;;18.88;2.33;;;;;;;;;;5065280;28;20406;-68
2023/03/04 10:51:18;;;;;;;8.20;1.50;;;;;;;;;;5068285;28;20044;-68
2023/03/04 10:53:45;;;;;;;13.20;1.70;;;;;;;;;;5068888;28;20044;-68
2023/03/04 10:56:30;;;;;;;11.07;2.28;;;;;;;;;;5068440;28;20044;-68
2023/03/04 10:59:15;;;;;;;11.95;1.60;;;;;;;;;;5068691;28;20040;-68
2023/03/04 11:01:41;;;;;;;10.88;1.67;;;;;;;;;;5068590;28;20127;-68
2023/03/04 11:04:17;;;;;;;10.32;1.73;;;;;;;;;;5068398;28;20041;-68
2023/03/04 11:06:43;;;;;;;9.25;1.20;;;;;;;;;;5068606;28;20036;-68
2023/03/04 11:09:19;;;;;;;9.63;1.35;;;;;;;;;;5068084;28;20501;-68
2023/03/04 11:11:46;;;;;;;10.55;1.38;;;;;;;;;;5068252;28;20045;-68
2023/03/04 11:14:21;;;;;;;9.50;1.30;;;;;;;;;;5051645;28;20045;-68
2023/03/04 11:16:57;;;;;;;9.95;1.50;;;;;;;;;;5068535;28;20094;-68
2023/03/04 11:19:28;;;;;;;11.80;1.70;;;;;;;;;;5067857;28;20059;-68
2023/03/04 11:21:54;;;;;;;11.35;1.50;;;;;;;;;;5032015;28;1048079;-68
2023/03/04 11:24:25;;;;;;;9.35;1.73;;;;;;;;;;5053791;28;20049;-68
2023/03/04 11:26:54;;;;;;;13.68;1.58;;;;;;;;;;5063346;28;20070;-68
2023/03/04 11:29:44;;;;;;;9.90;1.20;;;;;;;;;;5069147;28;20091;-69
2023/03/04 11:32:10;;;;;;;9.63;1.55;;;;;;;;;;5066644;28;20139;-68
2023/03/04 11:34:55;;;;;;;11.20;1.83;;;;;;;;;;5069045;28;20049;-68
2023/03/04 11:37:31;;;;;;;9.80;1.58;;;;;;;;;;5052574;28;20143;-68
2023/03/04 11:39:57;;;;;;;12.30;1.83;;;;;;;;;;5069250;28;20142;-68
2023/03/04 11:42:32;;;;;;;11.90;2.05;;;;;;;;;;5068346;28;20065;-68
2023/03/04 11:44:58;;;;;;;18.55;3.35;;;;;;;;;;5069509;28;20090;-68
2023/03/04 11:47:33;;;;;;;15.35;2.50;;;;;;;;;;5061525;28;20128;-68
2023/03/04 11:50:20;;;;;;;17.45;3.33;;;;;;;;;;5048438;28;20037;-68
2023/03/04 11:52:53;;;;;;;18.15;2.58;;;;;;;;;;5049131;28;20041;-68
2023/03/04 11:55:22;;;;;;;18.38;2.53;;;;;;;;;;5048845;28;20045;-68
2023/03/04 11:58:07;;;;;;;21.98;3.03;;;;;;;;;;5049303;28;20148;-68
2023/03/04 12:00:37;;;;;;;14.27;2.65;;;;;;;;;;5049157;28;20143;-68
2023/03/04 12:03:15;;;;;;;13.68;2.88;;;;;;;;;;5048609;28;20783;-68
2023/03/04 12:06:00;;;;;;;14.95;2.67;;;;;;;;;;5049303;28;20057;-68
2023/03/04 12:08:32;;;;;;;16.80;2.00;;;;;;;;;;5049252;28;20079;-68
2023/03/04 12:11:03;;;;;;;14.45;2.33;;;;;;;;;;5048752;28;20060;-68
2023/03/04 12:13:35;;;;;;;8.27;2.10;;;;;;;;;;5048868;28;20053;-69
2023/03/04 12:16:19;;;;;;;21.52;2.33;;;;;;;;;;5048845;28;20055;-69
2023/03/04 12:18:54;;;;;;;11.70;2.13;;;;;;;;;;5048097;28;20048;-69
2023/03/04 12:21:44;;;;;;;10.30;2.05;;;;;;;;;;5049902;28;20048;-69
2023/03/04 12:24:29;;;;;;;14.00;2.50;;;;;;;;;;5049616;28;20040;-69
2023/03/04 12:27:19;;;;;;;11.55;2.05;;;;;;;;;;5056273;28;20599;-69
2023/03/04 12:29:56;;;;;;;22.77;2.50;;;;;;;;;;5051807;28;20057;-69
2023/03/04 12:32:28;;;;;;;14.77;2.63;;;;;;;;;;5051767;28;20040;-69
2023/03/04 12:34:57;;;;;;;13.98;2.60;;;;;;;;;;5052515;28;20043;-69
2023/03/04 12:37:41;;;;;;;16.55;2.30;;;;;;;;;;5052106;28;20060;-69
2023/03/04 12:40:16;;;;;;;13.80;1.80;;;;;;;;;;5051526;28;20052;-69
2023/03/04 12:42:54;;;;;;;14.38;2.72;;;;;;;;;;5053587;28;20049;-69
2023/03/04 12:45:40;;;;;;;14.10;1.95;;;;;;;;;;5051838;28;20436;-69
2023/03/04 12:48:16;;;;;;;11.77;1.92;;;;;;;;;;5063955;28;20055;-69
2023/03/04 12:50:58;;;;;;;10.82;2.05;;;;;;;;;;5071635;28;20033;-69
2023/03/04 12:53:24;;;;;;;;;;;;;;;;;;5072114;28;20037;-69
2023/03/04 12:55:52;;;;;;;15.63;3.38;;;;;;;;;;5071210;28;19970;-69
2023/03/04 12:58:21;;;;;;;12.77;2.00;;;;;;;;;;5071861;28;20532;-69
2023/03/04 13:00:59;;;;;;;18.30;2.80;;;;;;;;;;5071467;28;20040;-69
2023/03/04 13:03:25;;;;;;;16.40;2.60;;;;;;;;;;5072284;28;20039;-69
2023/03/04 13:06:03;;;;;;;19.50;3.05;;;;;;;;;;5071787;28;20386;-70
2023/03/04 13:08:36;;;;;;;15.95;2.45;;;;;;;;;;5071387;28;20119;-70
2023/03/04 13:11:03;;;;;;;16.33;2.90;;;;;;;;;;5070736;28;20032;-69
2023/03/04 13:13:37;;;;;;;16.05;3.15;;;;;;;;;;5071254;28;20040;-69
2023/03/04 13:16:05;;;;;;;16.63;2.65;;;;;;;;;;5071569;28;20052;-69
2023/03/04 13:18:38;;;;;;;19.42;3.00;;;;;;;;;;5070612;28;20058;-69
2023/03/04 13:21:13;;;;;;;12.50;2.33;;;;;;;;;;5071140;28;20089;-69
2023/03/04 13:23:40;;;;;;;10.90;2.17;;;;;;;;;;5071204;28;20059;-69
2023/03/04 13:26:06;;;;;;;16.17;2.90;;;;;;;;;;5062141;28;20499;-69
2023/03/04 13:28:34;;;;;;;20.48;2.60;;;;;;;;;;5034733;28;20138;-69
2023/03/04 13:31:09;;;;;;;14.73;2.50;;;;;;;;;;5034680;28;20040;-69
2023/03/04 13:33:35;;;;;;;11.77;2.17;;;;;;;;;;5049384;28;20066;-69
2023/03/04 13:36:07;;;;;;;12.48;2.00;;;;;;;;;;5050894;28;20399;-69
2023/03/04 13:38:35;;;;;;;15.05;1.85;;;;;;;;;;5050796;28;20090;-69
2023/03/04 13:41:04;;;;;;;8.73;1.52;;;;;;;;;;5050335;28;20041;-69
2023/03/04 13:43:38;;;;;;;12.63;1.70;;;;;;;;;;5051019;28;20131;-69
2023/03/04 13:46:22;;;;;;;14.32;2.28;;;;;;;;;;5050936;28;20041;-69
2023/03/04 13:48:51;;;;;;;13.05;1.95;;;;;;;;;;5050436;28;20053;-69
2023/03/04 13:51:17;;;;;;;16.98;2.50;;;;;;;;;;5050606;28;20037;-69
2023/03/04 13:54:03;;;;;;;16.33;2.13;;;;;;;;;;5050437;28;20048;-69
2023/03/04 13:56:35;;;;;;;14.38;2.20;;;;;;;;;;5040226;28;20052;-69
2023/03/04 13:59:08;;;;;;;15.23;2.17;;;;;;;;;;5050580;28;20471;-69
2023/03/04 14:01:34;;;;;;;;;;;;;;;;;;5050451;28;20083;-69
2023/03/04 14:04:01;;;;;;;11.50;1.63;;;;;;;;;;5050616;28;19979;-69
2023/03/04 14:06:28;;;;;;;10.15;2.13;;;;;;;;;;5050836;28;20060;-69
2023/03/04 14:08:55;;;;;;;7.97;1.80;;;;;;;;;;5051176;28;20040;-69
2023/03/04 14:11:41;;;;;;;11.85;1.80;;;;;;;;;;5051706;28;20144;-69
2023/03/04 14:14:08;;;;;;;10.98;1.80;;;;;;;;;;5050119;28;20052;-69
2023/03/04 14:16:39;;;;;;;10.80;1.60;;;;;;;;;;5049732;28;20045;-69
2023/03/04 14:19:06;;;;;;;14.40;1.88;;;;;;;;;;5050161;28;20041;-69
2023/03/04 14:21:35;;;;;;;8.70;1.73;;;;;;;;;;5049698;28;20423;-69
2023/03/04 14:24:07;;;;;;;12.25;1.83;;;;;;;;;;5061855;28;20076;-69
2023/03/04 14:26:33;;;;;;;6.30;1.73;;;;;;;;;;5057564;28;20044;-69
2023/03/04 14:29:01;;;;;;;11.18;1.73;;;;;;;;;;5051304;28;20037;-69
2023/03/04 14:31:29;;;;;;;12.80;1.83;;;;;;;;;;5049808;28;20053;-69
2023/03/04 14:34:01;;;;;;;7.97;1.95;;;;;;;;;;5049963;28;20041;-69
2023/03/04 14:36:28;;;;;;;15.95;1.98;;;;;;;;;;5049947;28;20563;-69
2023/03/04 14:39:00;;;;;;;8.25;1.27;;;;;;;;;;5049280;28;20070;-69
2023/03/04 14:41:32;;;;;;;13.15;2.38;;;;;;;;;;5049728;28;20106;-69